Aviation Digital Data Service (ADDS)

Output produced by METARs form (1437 UTC 22 April 2019)
found at http://www.aviationweather.gov/metar/data/
 
METAR text: RJCC 221430Z 32003KT CAVOK 02/M03 Q1019 RMK A3010
Conditions at: RJCC (CHITOSE (JASDF/C, JP) observed 1430 UTC 22 April 2019
Temperature: 2.0°C (36°F)
Dewpoint: -3.0°C (27°F) [RH = 69%]
Pressure (altimeter): 30.09 inches Hg (1019.0 mb)
Winds: from the NW (320 degrees) at 3 MPH (3 knots; 1.5 m/s)
Visibility: 6 or more miles (10+ km)
Ceiling: ceiling and visibility are OK
Clouds: unknown
Weather: no significant weather observed at this time

METAR text: RJCC 221400Z 30004KT CAVOK 03/M03 Q1018 RMK A3008
Conditions at: RJCC (CHITOSE (JASDF/C, JP) observed 1400 UTC 22 April 2019
Temperature: 3.0°C (37°F)
Dewpoint: -3.0°C (27°F) [RH = 65%]
Pressure (altimeter): 30.06 inches Hg (1018.0 mb)
Winds: from the WNW (300 degrees) at 5 MPH (4 knots; 2.1 m/s)
Visibility: 6 or more miles (10+ km)
Ceiling: ceiling and visibility are OK
Clouds: unknown
Weather: no significant weather observed at this time

METAR text: RJCC 221330Z 33001KT CAVOK 03/M04 Q1018 RMK A3008
Conditions at: RJCC (CHITOSE (JASDF/C, JP) observed 1330 UTC 22 April 2019
Temperature: 3.0°C (37°F)
Dewpoint: -4.0°C (25°F) [RH = 60%]
Pressure (altimeter): 30.06 inches Hg (1018.0 mb)
Winds: from the NNW (330 degrees) at 1 MPH (1 knots; 0.5 m/s)
Visibility: 6 or more miles (10+ km)
Ceiling: ceiling and visibility are OK
Clouds: unknown
Weather: no significant weather observed at this time

METAR text: RJCC 221300Z VRB01KT CAVOK 05/M03 Q1018 RMK A3008
Conditions at: RJCC (CHITOSE (JASDF/C, JP) observed 1300 UTC 22 April 2019
Temperature: 5.0°C (41°F)
Dewpoint: -3.0°C (27°F) [RH = 56%]
Pressure (altimeter): 30.06 inches Hg (1018.0 mb)
Winds: variable direction winds at 1 MPH (1 knots; 0.5 m/s)
Visibility: 6 or more miles (10+ km)
Ceiling: ceiling and visibility are OK
Clouds: unknown
Weather: no significant weather observed at this time

METAR text: RJCC 221230Z 35004KT CAVOK 04/M02 Q1018 RMK A3008
Conditions at: RJCC (CHITOSE (JASDF/C, JP) observed 1230 UTC 22 April 2019
Temperature: 4.0°C (39°F)
Dewpoint: -2.0°C (28°F) [RH = 65%]
Pressure (altimeter): 30.06 inches Hg (1018.0 mb)
Winds: from the N (350 degrees) at 5 MPH (4 knots; 2.1 m/s)
Visibility: 6 or more miles (10+ km)
Ceiling: ceiling and visibility are OK
Clouds: unknown
Weather: no significant weather observed at this time

METAR text: RJCC 221200Z 34004KT CAVOK 06/M02 Q1018 RMK A3008
Conditions at: RJCC (CHITOSE (JASDF/C, JP) observed 1200 UTC 22 April 2019
Temperature: 6.0°C (43°F)
Dewpoint: -2.0°C (28°F) [RH = 56%]
Pressure (altimeter): 30.06 inches Hg (1018.0 mb)
Winds: from the NNW (340 degrees) at 5 MPH (4 knots; 2.1 m/s)
Visibility: 6 or more miles (10+ km)
Ceiling: ceiling and visibility are OK
Clouds: unknown
Weather: no significant weather observed at this time

METAR text: RJCC 221130Z 01003KT CAVOK 07/M03 Q1018 RMK A3008
Conditions at: RJCC (CHITOSE (JASDF/C, JP) observed 1130 UTC 22 April 2019
Temperature: 7.0°C (45°F)
Dewpoint: -3.0°C (27°F) [RH = 49%]
Pressure (altimeter): 30.06 inches Hg (1018.0 mb)
Winds: from the N (10 degrees) at 3 MPH (3 knots; 1.5 m/s)
Visibility: 6 or more miles (10+ km)
Ceiling: ceiling and visibility are OK
Clouds: unknown
Weather: no significant weather observed at this time

METAR text: RJCC 221100Z 36005KT CAVOK 07/M06 Q1018 RMK A3006
Conditions at: RJCC (CHITOSE (JASDF/C, JP) observed 1100 UTC 22 April 2019
Temperature: 7.0°C (45°F)
Dewpoint: -6.0°C (21°F) [RH = 39%]
Pressure (altimeter): 30.06 inches Hg (1018.0 mb)
Winds: from the N (360 degrees) at 6 MPH (5 knots; 2.6 m/s)
Visibility: 6 or more miles (10+ km)
Ceiling: ceiling and visibility are OK
Clouds: unknown
Weather: no significant weather observed at this time

METAR text: RJCC 221030Z 35005KT CAVOK 09/M11 Q1017 RMK A3005
Conditions at: RJCC (CHITOSE (JASDF/C, JP) observed 1030 UTC 22 April 2019
Temperature: 9.0°C (48°F)
Dewpoint: -11.0°C (12°F) [RH = 23%]
Pressure (altimeter): 30.03 inches Hg (1017.0 mb)
Winds: from the N (350 degrees) at 6 MPH (5 knots; 2.6 m/s)
Visibility: 6 or more miles (10+ km)
Ceiling: ceiling and visibility are OK
Clouds: unknown
Weather: no significant weather observed at this time

METAR text: RJCC 221000Z 32006KT 9999 FEW030 11/M14 Q1017 RMK 1CU030 A3004
Conditions at: RJCC (CHITOSE (JASDF/C, JP) observed 1000 UTC 22 April 2019
Temperature: 11.0°C (52°F)
Dewpoint: -14.0°C ( 7°F) [RH = 16%]
Pressure (altimeter): 30.03 inches Hg (1017.0 mb)
Winds: from the NW (320 degrees) at 7 MPH (6 knots; 3.1 m/s)
Visibility: 6 or more miles (10+ km)
Ceiling: at least 12,000 feet AGL
Clouds: few clouds at 3000 feet AGL
Weather: no significant weather observed at this time

METAR text: RJCC 220930Z 32008KT 9999 FEW030 11/M14 Q1017 RMK 1CU030 A3003
Conditions at: RJCC (CHITOSE (JASDF/C, JP) observed 0930 UTC 22 April 2019
Temperature: 11.0°C (52°F)
Dewpoint: -14.0°C ( 7°F) [RH = 16%]
Pressure (altimeter): 30.03 inches Hg (1017.0 mb)
Winds: from the NW (320 degrees) at 9 MPH (8 knots; 4.1 m/s)
Visibility: 6 or more miles (10+ km)
Ceiling: at least 12,000 feet AGL
Clouds: few clouds at 3000 feet AGL
Weather: no significant weather observed at this time

METAR text: RJCC 220900Z 33013KT 9999 FEW030 12/M14 Q1016 RMK 1CU030 A3002
Conditions at: RJCC (CHITOSE (JASDF/C, JP) observed 0900 UTC 22 April 2019
Temperature: 12.0°C (54°F)
Dewpoint: -14.0°C ( 7°F) [RH = 15%]
Pressure (altimeter): 30.00 inches Hg (1016.0 mb)
Winds: from the NNW (330 degrees) at 15 MPH (13 knots; 6.7 m/s)
Visibility: 6 or more miles (10+ km)
Ceiling: at least 12,000 feet AGL
Clouds: few clouds at 3000 feet AGL
Weather: no significant weather observed at this time

METAR text: RJCC 220830Z 32015KT 9999 FEW030 13/M15 Q1016 RMK 1CU030 A3001
Conditions at: RJCC (CHITOSE (JASDF/C, JP) observed 0830 UTC 22 April 2019
Temperature: 13.0°C (55°F)
Dewpoint: -15.0°C ( 5°F) [RH = 13%]
Pressure (altimeter): 30.00 inches Hg (1016.0 mb)
Winds: from the NW (320 degrees) at 17 MPH (15 knots; 7.7 m/s)
Visibility: 6 or more miles (10+ km)
Ceiling: at least 12,000 feet AGL
Clouds: few clouds at 3000 feet AGL
Weather: no significant weather observed at this time

METAR text: RJCC 220800Z 34016KT 9999 FEW030 13/M14 Q1015 RMK 1CU030 A3000
Conditions at: RJCC (CHITOSE (JASDF/C, JP) observed 0800 UTC 22 April 2019
Temperature: 13.0°C (55°F)
Dewpoint: -14.0°C ( 7°F) [RH = 14%]
Pressure (altimeter): 29.97 inches Hg (1015.0 mb)
Winds: from the NNW (340 degrees) at 18 MPH (16 knots; 8.2 m/s)
Visibility: 6 or more miles (10+ km)
Ceiling: at least 12,000 feet AGL
Clouds: few clouds at 3000 feet AGL
Weather: no significant weather observed at this time

METAR text: RJCC 220730Z 33017KT 9999 FEW030 14/M15 Q1015 RMK 1CU030 A2999
Conditions at: RJCC (CHITOSE (JASDF/C, JP) observed 0730 UTC 22 April 2019
Temperature: 14.0°C (57°F)
Dewpoint: -15.0°C ( 5°F) [RH = 12%]
Pressure (altimeter): 29.97 inches Hg (1015.0 mb)
Winds: from the NNW (330 degrees) at 20 MPH (17 knots; 8.7 m/s)
Visibility: 6 or more miles (10+ km)
Ceiling: at least 12,000 feet AGL
Clouds: few clouds at 3000 feet AGL
Weather: no significant weather observed at this time

METAR text: RJCC 220700Z 34017KT CAVOK 14/M11 Q1015 RMK A2998
Conditions at: RJCC (CHITOSE (JASDF/C, JP) observed 0700 UTC 22 April 2019
Temperature: 14.0°C (57°F)
Dewpoint: -11.0°C (12°F) [RH = 17%]
Pressure (altimeter): 29.97 inches Hg (1015.0 mb)
Winds: from the NNW (340 degrees) at 20 MPH (17 knots; 8.7 m/s)
Visibility: 6 or more miles (10+ km)
Ceiling: ceiling and visibility are OK
Clouds: unknown
Weather: no significant weather observed at this time

METAR text: RJCC 220630Z 35017KT 9999 FEW030 15/M08 Q1015 RMK 1CU030 A2997
Conditions at: RJCC (CHITOSE (JASDF/C, JP) observed 0630 UTC 22 April 2019
Temperature: 15.0°C (59°F)
Dewpoint: -8.0°C (18°F) [RH = 20%]
Pressure (altimeter): 29.97 inches Hg (1015.0 mb)
Winds: from the N (350 degrees) at 20 MPH (17 knots; 8.7 m/s)
Visibility: 6 or more miles (10+ km)
Ceiling: at least 12,000 feet AGL
Clouds: few clouds at 3000 feet AGL
Weather: no significant weather observed at this time

METAR text: RJCC 220600Z 34018KT 9999 FEW030 15/M12 Q1014 RMK 1CU030 A2996
Conditions at: RJCC (CHITOSE (JASDF/C, JP) observed 0600 UTC 22 April 2019
Temperature: 15.0°C (59°F)
Dewpoint: -12.0°C (10°F) [RH = 14%]
Pressure (altimeter): 29.94 inches Hg (1014.0 mb)
Winds: from the NNW (340 degrees) at 21 MPH (18 knots; 9.3 m/s)
Visibility: 6 or more miles (10+ km)
Ceiling: at least 12,000 feet AGL
Clouds: few clouds at 3000 feet AGL
Weather: no significant weather observed at this time

METAR text: RJCC 220530Z 34019KT 9999 FEW030 16/M10 Q1014 RMK 1CU030 A2996
Conditions at: RJCC (CHITOSE (JASDF/C, JP) observed 0530 UTC 22 April 2019
Temperature: 16.0°C (61°F)
Dewpoint: -10.0°C (14°F) [RH = 16%]
Pressure (altimeter): 29.94 inches Hg (1014.0 mb)
Winds: from the NNW (340 degrees) at 22 MPH (19 knots; 9.8 m/s)
Visibility: 6 or more miles (10+ km)
Ceiling: at least 12,000 feet AGL
Clouds: few clouds at 3000 feet AGL
Weather: no significant weather observed at this time

METAR text: RJCC 220500Z 34017KT 9999 FEW030 16/M07 Q1014 RMK 1CU030 A2995
Conditions at: RJCC (CHITOSE (JASDF/C, JP) observed 0500 UTC 22 April 2019
Temperature: 16.0°C (61°F)
Dewpoint: -7.0°C (19°F) [RH = 20%]
Pressure (altimeter): 29.94 inches Hg (1014.0 mb)
Winds: from the NNW (340 degrees) at 20 MPH (17 knots; 8.7 m/s)
Visibility: 6 or more miles (10+ km)
Ceiling: at least 12,000 feet AGL
Clouds: few clouds at 3000 feet AGL
Weather: no significant weather observed at this time

METAR text: RJCC 220430Z 34020KT 9999 FEW030 16/M10 Q1014 RMK 1CU030 A2995
Conditions at: RJCC (CHITOSE (JASDF/C, JP) observed 0430 UTC 22 April 2019
Temperature: 16.0°C (61°F)
Dewpoint: -10.0°C (14°F) [RH = 16%]
Pressure (altimeter): 29.94 inches Hg (1014.0 mb)
Winds: from the NNW (340 degrees) at 23 MPH (20 knots; 10.3 m/s)
Visibility: 6 or more miles (10+ km)
Ceiling: at least 12,000 feet AGL
Clouds: few clouds at 3000 feet AGL
Weather: no significant weather observed at this time

METAR text: RJCC 220400Z 35019KT 9999 FEW030 17/M07 Q1014 RMK 1CU030 A2995
Conditions at: RJCC (CHITOSE (JASDF/C, JP) observed 0400 UTC 22 April 2019
Temperature: 17.0°C (63°F)
Dewpoint: -7.0°C (19°F) [RH = 19%]
Pressure (altimeter): 29.94 inches Hg (1014.0 mb)
Winds: from the N (350 degrees) at 22 MPH (19 knots; 9.8 m/s)
Visibility: 6 or more miles (10+ km)
Ceiling: at least 12,000 feet AGL
Clouds: few clouds at 3000 feet AGL
Weather: no significant weather observed at this time

METAR text: RJCC 220330Z 36019KT 9999 FEW030 17/M05 Q1013 RMK 1CU030 A2994
Conditions at: RJCC (CHITOSE (JASDF/C, JP) observed 0330 UTC 22 April 2019
Temperature: 17.0°C (63°F)
Dewpoint: -5.0°C (23°F) [RH = 22%]
Pressure (altimeter): 29.91 inches Hg (1013.0 mb)
Winds: from the N (360 degrees) at 22 MPH (19 knots; 9.8 m/s)
Visibility: 6 or more miles (10+ km)
Ceiling: at least 12,000 feet AGL
Clouds: few clouds at 3000 feet AGL
Weather: no significant weather observed at this time

METAR text: RJCC 220303Z 34018G28KT 9999 FEW030 17/M03 Q1013 RMK 1CU030 A2993
Conditions at: RJCC (CHITOSE (JASDF/C, JP) observed 0303 UTC 22 April 2019
Temperature: 17.0°C (63°F)
Dewpoint: -3.0°C (27°F) [RH = 25%]
Pressure (altimeter): 29.91 inches Hg (1013.0 mb)
Winds: from the NNW (340 degrees) at 21 MPH (18 knots; 9.3 m/s)
gusting to 32 MPH (28 knots; 14.4 m/s)
Visibility: 6 or more miles (10+ km)
Ceiling: at least 12,000 feet AGL
Clouds: few clouds at 3000 feet AGL
Weather: no significant weather observed at this time

METAR text: RJCC 220300Z 34018KT 9999 FEW030 16/M03 Q1013 RMK 1CU030 A2994
Conditions at: RJCC (CHITOSE (JASDF/C, JP) observed 0300 UTC 22 April 2019
Temperature: 16.0°C (61°F)
Dewpoint: -3.0°C (27°F) [RH = 27%]
Pressure (altimeter): 29.91 inches Hg (1013.0 mb)
Winds: from the NNW (340 degrees) at 21 MPH (18 knots; 9.3 m/s)
Visibility: 6 or more miles (10+ km)
Ceiling: at least 12,000 feet AGL
Clouds: few clouds at 3000 feet AGL
Weather: no significant weather observed at this time

METAR text: RJCC 220230Z 35015KT 9999 FEW030 16/00 Q1013 RMK 1CU030 A2993
Conditions at: RJCC (CHITOSE (JASDF/C, JP) observed 0230 UTC 22 April 2019
Temperature: 16.0°C (61°F)
Dewpoint: 0.0°C (32°F) [RH = 34%]
Pressure (altimeter): 29.91 inches Hg (1013.0 mb)
Winds: from the N (350 degrees) at 17 MPH (15 knots; 7.7 m/s)
Visibility: 6 or more miles (10+ km)
Ceiling: at least 12,000 feet AGL
Clouds: few clouds at 3000 feet AGL
Weather: no significant weather observed at this time

METAR text: RJCC 220200Z 34013KT 9999 FEW030 15/00 Q1013 RMK 1CU030 A2994
Conditions at: RJCC (CHITOSE (JASDF/C, JP) observed 0200 UTC 22 April 2019
Temperature: 15.0°C (59°F)
Dewpoint: 0.0°C (32°F) [RH = 36%]
Pressure (altimeter): 29.91 inches Hg (1013.0 mb)
Winds: from the NNW (340 degrees) at 15 MPH (13 knots; 6.7 m/s)
Visibility: 6 or more miles (10+ km)
Ceiling: at least 12,000 feet AGL
Clouds: few clouds at 3000 feet AGL
Weather: no significant weather observed at this time

METAR text: RJCC 220130Z 01009KT 320V040 9999 FEW030 16/00 Q1013 RMK 1CU030 A2993
Conditions at: RJCC (CHITOSE (JASDF/C, JP) observed 0130 UTC 22 April 2019
Temperature: 16.0°C (61°F)
Dewpoint: 0.0°C (32°F) [RH = 34%]
Pressure (altimeter): 29.91 inches Hg (1013.0 mb)
Winds: from the N (10 degrees) at 10 MPH (9 knots; 4.6 m/s)
Visibility: 6 or more miles (10+ km)
Ceiling: at least 12,000 feet AGL
Clouds: few clouds at 3000 feet AGL
Weather: no significant weather observed at this time

METAR text: RJCC 220100Z 01008KT 330V040 9999 FEW030 14/M01 Q1013 RMK 1CU030 A2993
Conditions at: RJCC (CHITOSE (JASDF/C, JP) observed 0100 UTC 22 April 2019
Temperature: 14.0°C (57°F)
Dewpoint: -1.0°C (30°F) [RH = 36%]
Pressure (altimeter): 29.91 inches Hg (1013.0 mb)
Winds: from the N (10 degrees) at 9 MPH (8 knots; 4.1 m/s)
Visibility: 6 or more miles (10+ km)
Ceiling: at least 12,000 feet AGL
Clouds: few clouds at 3000 feet AGL
Weather: no significant weather observed at this time

METAR text: RJCC 220030Z VRB02KT 9999 FEW030 13/01 Q1013 RMK 1CU030 A2993
Conditions at: RJCC (CHITOSE (JASDF/C, JP) observed 0030 UTC 22 April 2019
Temperature: 13.0°C (55°F)
Dewpoint: 1.0°C (34°F) [RH = 44%]
Pressure (altimeter): 29.91 inches Hg (1013.0 mb)
Winds: variable direction winds at 2 MPH (2 knots; 1.0 m/s)
Visibility: 6 or more miles (10+ km)
Ceiling: at least 12,000 feet AGL
Clouds: few clouds at 3000 feet AGL
Weather: no significant weather observed at this time

METAR text: RJCC 220000Z 19004KT 080V230 9999 FEW030 12/02 Q1013 RMK 1CU030 A2993
Conditions at: RJCC (CHITOSE (JASDF/C, JP) observed 0000 UTC 22 April 2019
Temperature: 12.0°C (54°F)
Dewpoint: 2.0°C (36°F) [RH = 50%]
Pressure (altimeter): 29.91 inches Hg (1013.0 mb)
Winds: from the S (190 degrees) at 5 MPH (4 knots; 2.1 m/s)
Visibility: 6 or more miles (10+ km)
Ceiling: at least 12,000 feet AGL
Clouds: few clouds at 3000 feet AGL
Weather: no significant weather observed at this time

METAR text: RJCC 212330Z 15005KT 100V200 CAVOK 12/02 Q1013 RMK A2992
Conditions at: RJCC (CHITOSE (JASDF/C, JP) observed 2330 UTC 21 April 2019
Temperature: 12.0°C (54°F)
Dewpoint: 2.0°C (36°F) [RH = 50%]
Pressure (altimeter): 29.91 inches Hg (1013.0 mb)
Winds: from the SSE (150 degrees) at 6 MPH (5 knots; 2.6 m/s)
Visibility: 6 or more miles (10+ km)
Ceiling: ceiling and visibility are OK
Clouds: unknown
Weather: no significant weather observed at this time

METAR text: RJCC 212300Z 18005KT 120V220 CAVOK 11/02 Q1013 RMK A2992
Conditions at: RJCC (CHITOSE (JASDF/C, JP) observed 2300 UTC 21 April 2019
Temperature: 11.0°C (52°F)
Dewpoint: 2.0°C (36°F) [RH = 54%]
Pressure (altimeter): 29.91 inches Hg (1013.0 mb)
Winds: from the S (180 degrees) at 6 MPH (5 knots; 2.6 m/s)
Visibility: 6 or more miles (10+ km)
Ceiling: ceiling and visibility are OK
Clouds: unknown
Weather: no significant weather observed at this time

METAR text: RJCC 212230Z 17006KT 150V210 CAVOK 10/02 Q1013 RMK A2992
Conditions at: RJCC (CHITOSE (JASDF/C, JP) observed 2230 UTC 21 April 2019
Temperature: 10.0°C (50°F)
Dewpoint: 2.0°C (36°F) [RH = 57%]
Pressure (altimeter): 29.91 inches Hg (1013.0 mb)
Winds: from the S (170 degrees) at 7 MPH (6 knots; 3.1 m/s)
Visibility: 6 or more miles (10+ km)
Ceiling: ceiling and visibility are OK
Clouds: unknown
Weather: no significant weather observed at this time

METAR text: RJCC 212200Z 17005KT CAVOK 09/02 Q1013 RMK A2992
Conditions at: RJCC (CHITOSE (JASDF/C, JP) observed 2200 UTC 21 April 2019
Temperature: 9.0°C (48°F)
Dewpoint: 2.0°C (36°F) [RH = 61%]
Pressure (altimeter): 29.91 inches Hg (1013.0 mb)
Winds: from the S (170 degrees) at 6 MPH (5 knots; 2.6 m/s)
Visibility: 6 or more miles (10+ km)
Ceiling: ceiling and visibility are OK
Clouds: unknown
Weather: no significant weather observed at this time

METAR text: RJCC 212130Z 18003KT 150V220 9999 FEW030 07/03 Q1013 RMK 1CU030 A2992
Conditions at: RJCC (CHITOSE (JASDF/C, JP) observed 2130 UTC 21 April 2019
Temperature: 7.0°C (45°F)
Dewpoint: 3.0°C (37°F) [RH = 76%]
Pressure (altimeter): 29.91 inches Hg (1013.0 mb)
Winds: from the S (180 degrees) at 3 MPH (3 knots; 1.5 m/s)
Visibility: 6 or more miles (10+ km)
Ceiling: at least 12,000 feet AGL
Clouds: few clouds at 3000 feet AGL
Weather: no significant weather observed at this time

METAR text: RJCC 212100Z 17002KT 9999 FEW030 05/03 Q1013 RMK 1CU030 A2992
Conditions at: RJCC (CHITOSE (JASDF/C, JP) observed 2100 UTC 21 April 2019
Temperature: 5.0°C (41°F)
Dewpoint: 3.0°C (37°F) [RH = 87%]
Pressure (altimeter): 29.91 inches Hg (1013.0 mb)
Winds: from the S (170 degrees) at 2 MPH (2 knots; 1.0 m/s)
Visibility: 6 or more miles (10+ km)
Ceiling: at least 12,000 feet AGL
Clouds: few clouds at 3000 feet AGL
Weather: no significant weather observed at this time

METAR text: RJCC 212030Z VRB01KT 9999 FEW030 SCT100 05/02 Q1013 RMK 1CU030 3AC100 A2992
Conditions at: RJCC (CHITOSE (JASDF/C, JP) observed 2030 UTC 21 April 2019
Temperature: 5.0°C (41°F)
Dewpoint: 2.0°C (36°F) [RH = 81%]
Pressure (altimeter): 29.91 inches Hg (1013.0 mb)
Winds: variable direction winds at 1 MPH (1 knots; 0.5 m/s)
Visibility: 6 or more miles (10+ km)
Ceiling: at least 12,000 feet AGL
Clouds: few clouds at 3000 feet AGL
scattered clouds at 10000 feet AGL
Weather: no significant weather observed at this time

METAR text: RJCC 212000Z 17003KT 9999 FEW030 SCT060 BKN100 05/03 Q1012 RMK 1CU030 3CU060 6AC100 A2991
Conditions at: RJCC (CHITOSE (JASDF/C, JP) observed 2000 UTC 21 April 2019
Temperature: 5.0°C (41°F)
Dewpoint: 3.0°C (37°F) [RH = 87%]
Pressure (altimeter): 29.88 inches Hg (1012.0 mb)
Winds: from the S (170 degrees) at 3 MPH (3 knots; 1.5 m/s)
Visibility: 6 or more miles (10+ km)
Ceiling: 10000 feet AGL
Clouds: few clouds at 3000 feet AGL
scattered clouds at 6000 feet AGL
broken clouds at 10000 feet AGL
Weather: no significant weather observed at this time

METAR text: RJCC 211930Z 23003KT 9999 FEW030 BKN060 BKN100 06/02 Q1012 RMK 1CU030 5CU060 7AC100 A2991
Conditions at: RJCC (CHITOSE (JASDF/C, JP) observed 1930 UTC 21 April 2019
Temperature: 6.0°C (43°F)
Dewpoint: 2.0°C (36°F) [RH = 75%]
Pressure (altimeter): 29.88 inches Hg (1012.0 mb)
Winds: from the SW (230 degrees) at 3 MPH (3 knots; 1.5 m/s)
Visibility: 6 or more miles (10+ km)
Ceiling: 6000 feet AGL
Clouds: few clouds at 3000 feet AGL
broken clouds at 6000 feet AGL
broken clouds at 10000 feet AGL
Weather: no significant weather observed at this time

METAR text: RJCC 211900Z VRB01KT 9999 -SHRA FEW030 BKN060 BKN100 06/02 Q1012 RMK 1CU030 5CU060 7AC100 A2991
Conditions at: RJCC (CHITOSE (JASDF/C, JP) observed 1900 UTC 21 April 2019
Temperature: 6.0°C (43°F)
Dewpoint: 2.0°C (36°F) [RH = 75%]
Pressure (altimeter): 29.88 inches Hg (1012.0 mb)
Winds: variable direction winds at 1 MPH (1 knots; 0.5 m/s)
Visibility: 6 or more miles (10+ km)
Ceiling: 6000 feet AGL
Clouds: few clouds at 3000 feet AGL
broken clouds at 6000 feet AGL
broken clouds at 10000 feet AGL
Weather: -SHRA  (light rain showers)

METAR text: RJCC 211830Z 26005KT 9999 FEW030 BKN070 BKN100 06/02 Q1013 RMK 1CU030 5AC070 7AC100 A2991
Conditions at: RJCC (CHITOSE (JASDF/C, JP) observed 1830 UTC 21 April 2019
Temperature: 6.0°C (43°F)
Dewpoint: 2.0°C (36°F) [RH = 75%]
Pressure (altimeter): 29.91 inches Hg (1013.0 mb)
Winds: from the W (260 degrees) at 6 MPH (5 knots; 2.6 m/s)
Visibility: 6 or more miles (10+ km)
Ceiling: 7000 feet AGL
Clouds: few clouds at 3000 feet AGL
broken clouds at 7000 feet AGL
broken clouds at 10000 feet AGL
Weather: no significant weather observed at this time

METAR text: RJCC 211800Z 23003KT 190V260 9999 FEW030 BKN070 BKN100 06/02 Q1013 RMK 1CU030 5AC070 7AC100 A2991
Conditions at: RJCC (CHITOSE (JASDF/C, JP) observed 1800 UTC 21 April 2019
Temperature: 6.0°C (43°F)
Dewpoint: 2.0°C (36°F) [RH = 75%]
Pressure (altimeter): 29.91 inches Hg (1013.0 mb)
Winds: from the SW (230 degrees) at 3 MPH (3 knots; 1.5 m/s)
Visibility: 6 or more miles (10+ km)
Ceiling: 7000 feet AGL
Clouds: few clouds at 3000 feet AGL
broken clouds at 7000 feet AGL
broken clouds at 10000 feet AGL
Weather: no significant weather observed at this time

METAR text: RJCC 211730Z 18002KT 9999 FEW030 BKN070 BKN100 06/02 Q1013 RMK 1CU030 5AC070 7AC100 A2991
Conditions at: RJCC (CHITOSE (JASDF/C, JP) observed 1730 UTC 21 April 2019
Temperature: 6.0°C (43°F)
Dewpoint: 2.0°C (36°F) [RH = 75%]
Pressure (altimeter): 29.91 inches Hg (1013.0 mb)
Winds: from the S (180 degrees) at 2 MPH (2 knots; 1.0 m/s)
Visibility: 6 or more miles (10+ km)
Ceiling: 7000 feet AGL
Clouds: few clouds at 3000 feet AGL
broken clouds at 7000 feet AGL
broken clouds at 10000 feet AGL
Weather: no significant weather observed at this time

METAR text: RJCC 211700Z VRB02KT 9999 FEW030 BKN070 BKN100 06/02 Q1012 RMK 1CU030 5AC070 7AC100 A2991
Conditions at: RJCC (CHITOSE (JASDF/C, JP) observed 1700 UTC 21 April 2019
Temperature: 6.0°C (43°F)
Dewpoint: 2.0°C (36°F) [RH = 75%]
Pressure (altimeter): 29.88 inches Hg (1012.0 mb)
Winds: variable direction winds at 2 MPH (2 knots; 1.0 m/s)
Visibility: 6 or more miles (10+ km)
Ceiling: 7000 feet AGL
Clouds: few clouds at 3000 feet AGL
broken clouds at 7000 feet AGL
broken clouds at 10000 feet AGL
Weather: no significant weather observed at this time

METAR text: RJCC 211630Z 24003KT 9999 FEW030 BKN070 BKN100 06/02 Q1013 RMK 1CU030 5AC070 7AC100 A2992
Conditions at: RJCC (CHITOSE (JASDF/C, JP) observed 1630 UTC 21 April 2019
Temperature: 6.0°C (43°F)
Dewpoint: 2.0°C (36°F) [RH = 75%]
Pressure (altimeter): 29.91 inches Hg (1013.0 mb)
Winds: from the WSW (240 degrees) at 3 MPH (3 knots; 1.5 m/s)
Visibility: 6 or more miles (10+ km)
Ceiling: 7000 feet AGL
Clouds: few clouds at 3000 feet AGL
broken clouds at 7000 feet AGL
broken clouds at 10000 feet AGL
Weather: no significant weather observed at this time

METAR text: RJCC 211600Z VRB01KT 9999 FEW030 BKN070 BKN100 06/02 Q1013 RMK 1CU030 5AC070 7AC100 A2992
Conditions at: RJCC (CHITOSE (JASDF/C, JP) observed 1600 UTC 21 April 2019
Temperature: 6.0°C (43°F)
Dewpoint: 2.0°C (36°F) [RH = 75%]
Pressure (altimeter): 29.91 inches Hg (1013.0 mb)
Winds: variable direction winds at 1 MPH (1 knots; 0.5 m/s)
Visibility: 6 or more miles (10+ km)
Ceiling: 7000 feet AGL
Clouds: few clouds at 3000 feet AGL
broken clouds at 7000 feet AGL
broken clouds at 10000 feet AGL
Weather: no significant weather observed at this time

METAR text: RJCC 211530Z 17005KT 9999 FEW030 BKN070 BKN100 06/02 Q1013 RMK 1CU030 5AC070 7AC100 A2992
Conditions at: RJCC (CHITOSE (JASDF/C, JP) observed 1530 UTC 21 April 2019
Temperature: 6.0°C (43°F)
Dewpoint: 2.0°C (36°F) [RH = 75%]
Pressure (altimeter): 29.91 inches Hg (1013.0 mb)
Winds: from the S (170 degrees) at 6 MPH (5 knots; 2.6 m/s)
Visibility: 6 or more miles (10+ km)
Ceiling: 7000 feet AGL
Clouds: few clouds at 3000 feet AGL
broken clouds at 7000 feet AGL
broken clouds at 10000 feet AGL
Weather: no significant weather observed at this time

METAR text: RJCC 211500Z 14003KT 100V160 9999 -SHRA FEW030 SCT070 BKN100 06/02 Q1013 RMK 1CU030 4AC070 7AC100 A2992
Conditions at: RJCC (CHITOSE (JASDF/C, JP) observed 1500 UTC 21 April 2019
Temperature: 6.0°C (43°F)
Dewpoint: 2.0°C (36°F) [RH = 75%]
Pressure (altimeter): 29.91 inches Hg (1013.0 mb)
Winds: from the SE (140 degrees) at 3 MPH (3 knots; 1.5 m/s)
Visibility: 6 or more miles (10+ km)
Ceiling: 10000 feet AGL
Clouds: few clouds at 3000 feet AGL
scattered clouds at 7000 feet AGL
broken clouds at 10000 feet AGL
Weather: -SHRA  (light rain showers)

METAR text: RJCC 211430Z 16005KT 9999 FEW030 BKN070 BKN100 06/03 Q1013 RMK 1CU030 5AC070 7AC100 A2993
Conditions at: RJCC (CHITOSE (JASDF/C, JP) observed 1430 UTC 21 April 2019
Temperature: 6.0°C (43°F)
Dewpoint: 3.0°C (37°F) [RH = 81%]
Pressure (altimeter): 29.91 inches Hg (1013.0 mb)
Winds: from the SSE (160 degrees) at 6 MPH (5 knots; 2.6 m/s)
Visibility: 6 or more miles (10+ km)
Ceiling: 7000 feet AGL
Clouds: few clouds at 3000 feet AGL
broken clouds at 7000 feet AGL
broken clouds at 10000 feet AGL
Weather: no significant weather observed at this time

METAR text: RJCC 211400Z VRB02KT 9999 FEW030 BKN080 BKN100 06/03 Q1013 RMK 1CU030 5AC080 7AC100 A2994
Conditions at: RJCC (CHITOSE (JASDF/C, JP) observed 1400 UTC 21 April 2019
Temperature: 6.0°C (43°F)
Dewpoint: 3.0°C (37°F) [RH = 81%]
Pressure (altimeter): 29.91 inches Hg (1013.0 mb)
Winds: variable direction winds at 2 MPH (2 knots; 1.0 m/s)
Visibility: 6 or more miles (10+ km)
Ceiling: 8000 feet AGL
Clouds: few clouds at 3000 feet AGL
broken clouds at 8000 feet AGL
broken clouds at 10000 feet AGL
Weather: no significant weather observed at this time

METAR text: RJCC 211330Z 15005KT 9999 FEW030 BKN080 06/03 Q1013 RMK 1CU030 7AC080 A2993
Conditions at: RJCC (CHITOSE (JASDF/C, JP) observed 1330 UTC 21 April 2019
Temperature: 6.0°C (43°F)
Dewpoint: 3.0°C (37°F) [RH = 81%]
Pressure (altimeter): 29.91 inches Hg (1013.0 mb)
Winds: from the SSE (150 degrees) at 6 MPH (5 knots; 2.6 m/s)
Visibility: 6 or more miles (10+ km)
Ceiling: 8000 feet AGL
Clouds: few clouds at 3000 feet AGL
broken clouds at 8000 feet AGL
Weather: no significant weather observed at this time

METAR text: RJCC 211300Z 15006KT 9999 FEW030 BKN080 06/02 Q1013 RMK 1CU030 7AC080 A2994
Conditions at: RJCC (CHITOSE (JASDF/C, JP) observed 1300 UTC 21 April 2019
Temperature: 6.0°C (43°F)
Dewpoint: 2.0°C (36°F) [RH = 75%]
Pressure (altimeter): 29.91 inches Hg (1013.0 mb)
Winds: from the SSE (150 degrees) at 7 MPH (6 knots; 3.1 m/s)
Visibility: 6 or more miles (10+ km)
Ceiling: 8000 feet AGL
Clouds: few clouds at 3000 feet AGL
broken clouds at 8000 feet AGL
Weather: no significant weather observed at this time

METAR text: RJCC 211230Z 15008KT 9999 FEW030 BKN080 06/02 Q1013 RMK 1CU030 6AC080 A2993
Conditions at: RJCC (CHITOSE (JASDF/C, JP) observed 1230 UTC 21 April 2019
Temperature: 6.0°C (43°F)
Dewpoint: 2.0°C (36°F) [RH = 75%]
Pressure (altimeter): 29.91 inches Hg (1013.0 mb)
Winds: from the SSE (150 degrees) at 9 MPH (8 knots; 4.1 m/s)
Visibility: 6 or more miles (10+ km)
Ceiling: 8000 feet AGL
Clouds: few clouds at 3000 feet AGL
broken clouds at 8000 feet AGL
Weather: no significant weather observed at this time

METAR text: RJCC 211200Z 15008KT 9999 FEW030 BKN080 06/02 Q1013 RMK 1CU030 6AC080 A2994
Conditions at: RJCC (CHITOSE (JASDF/C, JP) observed 1200 UTC 21 April 2019
Temperature: 6.0°C (43°F)
Dewpoint: 2.0°C (36°F) [RH = 75%]
Pressure (altimeter): 29.91 inches Hg (1013.0 mb)
Winds: from the SSE (150 degrees) at 9 MPH (8 knots; 4.1 m/s)
Visibility: 6 or more miles (10+ km)
Ceiling: 8000 feet AGL
Clouds: few clouds at 3000 feet AGL
broken clouds at 8000 feet AGL
Weather: no significant weather observed at this time

METAR text: RJCC 211130Z 16009KT 9999 FEW030 BKN080 06/02 Q1014 RMK 1CU030 6AC080 A2994
Conditions at: RJCC (CHITOSE (JASDF/C, JP) observed 1130 UTC 21 April 2019
Temperature: 6.0°C (43°F)
Dewpoint: 2.0°C (36°F) [RH = 75%]
Pressure (altimeter): 29.94 inches Hg (1014.0 mb)
Winds: from the SSE (160 degrees) at 10 MPH (9 knots; 4.6 m/s)
Visibility: 6 or more miles (10+ km)
Ceiling: 8000 feet AGL
Clouds: few clouds at 3000 feet AGL
broken clouds at 8000 feet AGL
Weather: no significant weather observed at this time

METAR text: RJCC 211100Z 16010KT CAVOK 06/02 Q1013 RMK A2993
Conditions at: RJCC (CHITOSE (JASDF/C, JP) observed 1100 UTC 21 April 2019
Temperature: 6.0°C (43°F)
Dewpoint: 2.0°C (36°F) [RH = 75%]
Pressure (altimeter): 29.91 inches Hg (1013.0 mb)
Winds: from the SSE (160 degrees) at 12 MPH (10 knots; 5.1 m/s)
Visibility: 6 or more miles (10+ km)
Ceiling: ceiling and visibility are OK
Clouds: unknown
Weather: no significant weather observed at this time

METAR text: RJCC 211030Z 15010KT CAVOK 06/02 Q1013 RMK A2992
Conditions at: RJCC (CHITOSE (JASDF/C, JP) observed 1030 UTC 21 April 2019
Temperature: 6.0°C (43°F)
Dewpoint: 2.0°C (36°F) [RH = 75%]
Pressure (altimeter): 29.91 inches Hg (1013.0 mb)
Winds: from the SSE (150 degrees) at 12 MPH (10 knots; 5.1 m/s)
Visibility: 6 or more miles (10+ km)
Ceiling: ceiling and visibility are OK
Clouds: unknown
Weather: no significant weather observed at this time

METAR text: RJCC 211000Z 16011KT CAVOK 06/01 Q1012 RMK A2991
Conditions at: RJCC (CHITOSE (JASDF/C, JP) observed 1000 UTC 21 April 2019
Temperature: 6.0°C (43°F)
Dewpoint: 1.0°C (34°F) [RH = 70%]
Pressure (altimeter): 29.88 inches Hg (1012.0 mb)
Winds: from the SSE (160 degrees) at 13 MPH (11 knots; 5.7 m/s)
Visibility: 6 or more miles (10+ km)
Ceiling: ceiling and visibility are OK
Clouds: unknown
Weather: no significant weather observed at this time

METAR text: RJCC 210930Z 16013KT CAVOK 07/01 Q1012 RMK A2989
Conditions at: RJCC (CHITOSE (JASDF/C, JP) observed 0930 UTC 21 April 2019
Temperature: 7.0°C (45°F)
Dewpoint: 1.0°C (34°F) [RH = 66%]
Pressure (altimeter): 29.88 inches Hg (1012.0 mb)
Winds: from the SSE (160 degrees) at 15 MPH (13 knots; 6.7 m/s)
Visibility: 6 or more miles (10+ km)
Ceiling: ceiling and visibility are OK
Clouds: unknown
Weather: no significant weather observed at this time

METAR text: RJCC 210900Z 15011KT CAVOK 07/01 Q1012 RMK A2988
Conditions at: RJCC (CHITOSE (JASDF/C, JP) observed 0900 UTC 21 April 2019
Temperature: 7.0°C (45°F)
Dewpoint: 1.0°C (34°F) [RH = 66%]
Pressure (altimeter): 29.88 inches Hg (1012.0 mb)
Winds: from the SSE (150 degrees) at 13 MPH (11 knots; 5.7 m/s)
Visibility: 6 or more miles (10+ km)
Ceiling: ceiling and visibility are OK
Clouds: unknown
Weather: no significant weather observed at this time

METAR text: RJCC 210830Z 15013KT CAVOK 08/01 Q1011 RMK A2988
Conditions at: RJCC (CHITOSE (JASDF/C, JP) observed 0830 UTC 21 April 2019
Temperature: 8.0°C (46°F)
Dewpoint: 1.0°C (34°F) [RH = 61%]
Pressure (altimeter): 29.85 inches Hg (1011.0 mb)
Winds: from the SSE (150 degrees) at 15 MPH (13 knots; 6.7 m/s)
Visibility: 6 or more miles (10+ km)
Ceiling: ceiling and visibility are OK
Clouds: unknown
Weather: no significant weather observed at this time

METAR text: RJCC 210800Z 15013KT CAVOK 08/00 Q1011 RMK A2988
Conditions at: RJCC (CHITOSE (JASDF/C, JP) observed 0800 UTC 21 April 2019
Temperature: 8.0°C (46°F)
Dewpoint: 0.0°C (32°F) [RH = 57%]
Pressure (altimeter): 29.85 inches Hg (1011.0 mb)
Winds: from the SSE (150 degrees) at 15 MPH (13 knots; 6.7 m/s)
Visibility: 6 or more miles (10+ km)
Ceiling: ceiling and visibility are OK
Clouds: unknown
Weather: no significant weather observed at this time

METAR text: RJCC 210730Z 17013KT CAVOK 09/01 Q1011 RMK A2988
Conditions at: RJCC (CHITOSE (JASDF/C, JP) observed 0730 UTC 21 April 2019
Temperature: 9.0°C (48°F)
Dewpoint: 1.0°C (34°F) [RH = 57%]
Pressure (altimeter): 29.85 inches Hg (1011.0 mb)
Winds: from the S (170 degrees) at 15 MPH (13 knots; 6.7 m/s)
Visibility: 6 or more miles (10+ km)
Ceiling: ceiling and visibility are OK
Clouds: unknown
Weather: no significant weather observed at this time

METAR text: RJCC 210700Z 16014KT CAVOK 09/00 Q1011 RMK A2988
Conditions at: RJCC (CHITOSE (JASDF/C, JP) observed 0700 UTC 21 April 2019
Temperature: 9.0°C (48°F)
Dewpoint: 0.0°C (32°F) [RH = 53%]
Pressure (altimeter): 29.85 inches Hg (1011.0 mb)
Winds: from the SSE (160 degrees) at 16 MPH (14 knots; 7.2 m/s)
Visibility: 6 or more miles (10+ km)
Ceiling: ceiling and visibility are OK
Clouds: unknown
Weather: no significant weather observed at this time

METAR text: RJCC 210630Z 16015KT CAVOK 09/M00 Q1011 RMK A2988
Conditions at: RJCC (CHITOSE (JASDF/C, JP) observed 0630 UTC 21 April 2019
Temperature: 9.0°C (48°F)
Dewpoint: 0.0°C (32°F) [RH = 53%]
Pressure (altimeter): 29.85 inches Hg (1011.0 mb)
Winds: from the SSE (160 degrees) at 17 MPH (15 knots; 7.7 m/s)
Visibility: 6 or more miles (10+ km)
Ceiling: ceiling and visibility are OK
Clouds: unknown
Weather: no significant weather observed at this time

METAR text: RJCC 210600Z 16014KT CAVOK 10/M01 Q1011 RMK A2988
Conditions at: RJCC (CHITOSE (JASDF/C, JP) observed 0600 UTC 21 April 2019
Temperature: 10.0°C (50°F)
Dewpoint: -1.0°C (30°F) [RH = 46%]
Pressure (altimeter): 29.85 inches Hg (1011.0 mb)
Winds: from the SSE (160 degrees) at 16 MPH (14 knots; 7.2 m/s)
Visibility: 6 or more miles (10+ km)
Ceiling: ceiling and visibility are OK
Clouds: unknown
Weather: no significant weather observed at this time

METAR text: RJCC 210530Z 18016KT CAVOK 10/M01 Q1011 RMK A2988
Conditions at: RJCC (CHITOSE (JASDF/C, JP) observed 0530 UTC 21 April 2019
Temperature: 10.0°C (50°F)
Dewpoint: -1.0°C (30°F) [RH = 46%]
Pressure (altimeter): 29.85 inches Hg (1011.0 mb)
Winds: from the S (180 degrees) at 18 MPH (16 knots; 8.2 m/s)
Visibility: 6 or more miles (10+ km)
Ceiling: ceiling and visibility are OK
Clouds: unknown
Weather: no significant weather observed at this time

METAR text: RJCC 210500Z 17014KT CAVOK 10/M02 Q1012 RMK A2989
Conditions at: RJCC (CHITOSE (JASDF/C, JP) observed 0500 UTC 21 April 2019
Temperature: 10.0°C (50°F)
Dewpoint: -2.0°C (28°F) [RH = 43%]
Pressure (altimeter): 29.88 inches Hg (1012.0 mb)
Winds: from the S (170 degrees) at 16 MPH (14 knots; 7.2 m/s)
Visibility: 6 or more miles (10+ km)
Ceiling: ceiling and visibility are OK
Clouds: unknown
Weather: no significant weather observed at this time

METAR text: RJCC 210430Z 16013KT CAVOK 11/M03 Q1012 RMK A2989
Conditions at: RJCC (CHITOSE (JASDF/C, JP) observed 0430 UTC 21 April 2019
Temperature: 11.0°C (52°F)
Dewpoint: -3.0°C (27°F) [RH = 37%]
Pressure (altimeter): 29.88 inches Hg (1012.0 mb)
Winds: from the SSE (160 degrees) at 15 MPH (13 knots; 6.7 m/s)
Visibility: 6 or more miles (10+ km)
Ceiling: ceiling and visibility are OK
Clouds: unknown
Weather: no significant weather observed at this time

METAR text: RJCC 210400Z 18013KT CAVOK 11/M03 Q1012 RMK A2990
Conditions at: RJCC (CHITOSE (JASDF/C, JP) observed 0400 UTC 21 April 2019
Temperature: 11.0°C (52°F)
Dewpoint: -3.0°C (27°F) [RH = 37%]
Pressure (altimeter): 29.88 inches Hg (1012.0 mb)
Winds: from the S (180 degrees) at 15 MPH (13 knots; 6.7 m/s)
Visibility: 6 or more miles (10+ km)
Ceiling: ceiling and visibility are OK
Clouds: unknown
Weather: no significant weather observed at this time

METAR text: RJCC 210330Z 18013KT 150V210 CAVOK 11/M03 Q1012 RMK A2991
Conditions at: RJCC (CHITOSE (JASDF/C, JP) observed 0330 UTC 21 April 2019
Temperature: 11.0°C (52°F)
Dewpoint: -3.0°C (27°F) [RH = 37%]
Pressure (altimeter): 29.88 inches Hg (1012.0 mb)
Winds: from the S (180 degrees) at 15 MPH (13 knots; 6.7 m/s)
Visibility: 6 or more miles (10+ km)
Ceiling: ceiling and visibility are OK
Clouds: unknown
Weather: no significant weather observed at this time

METAR text: RJCC 210300Z 16012KT CAVOK 11/M04 Q1012 RMK A2991
Conditions at: RJCC (CHITOSE (JASDF/C, JP) observed 0300 UTC 21 April 2019
Temperature: 11.0°C (52°F)
Dewpoint: -4.0°C (25°F) [RH = 35%]
Pressure (altimeter): 29.88 inches Hg (1012.0 mb)
Winds: from the SSE (160 degrees) at 14 MPH (12 knots; 6.2 m/s)
Visibility: 6 or more miles (10+ km)
Ceiling: ceiling and visibility are OK
Clouds: unknown
Weather: no significant weather observed at this time

Forecast for: RJCC (CHITOSE (JASDF/C, JP)
Text: TAF RJCC 221106Z 2212/2318 34006KT 9999 FEW030
Forecast period: 1200 to 1500 UTC 22 April 2019
Forecast type: FROM: standard forecast or significant change
Winds: from the NNW (340 degrees) at 7 MPH (6 knots; 3.1 m/s)
Visibility: 6 or more miles 10+ km)
Ceiling: at least 12,000 feet AGL
Clouds: few clouds at 3000 feet AGL
Weather: no significant weather forecast for this period
Text: BECMG 2215/2217 16011KT
Forecast period: 1500 UTC 22 April 2019 to 1800 UTC 23 April 2019
Forecast type: BECOMING: Conditions expected to become as follows by 1700 UTC 22 April 2019
Winds: from the SSE (160 degrees) at 13 MPH (11 knots; 5.7 m/s)
Visibility: 6 or more miles 10+ km)
Ceiling: at least 12,000 feet AGL
Clouds: few clouds at 3000 feet AGL
Weather: no significant weather forecast for this period
Text: TEMPO 2312/2318 FEW004 BKN008
Forecast period: 1200 to 1800 UTC 23 April 2019
Forecast type: TEMPORARY: The following changes expected for less than half the time period
Visibility: missing
Ceiling: 800 feet AGL
Clouds: few clouds at 400 feet AGL
broken clouds at 800 feet AGL
Weather: no significant weather forecast for this period